Main page
METAR-TAF:

METAR-TAF

Airports :

Gloucestershire Airport

Gloucester, England

latitude: 51-54N, longitude: 002-10W, elevation: 29 m

Current weather observation

The report was made 22 minutes ago, at 18:20 UTC
Wind 12 kt from the Northeast
Temperature 7°C
Humidity 76%
Pressure 1018 hPa
Visibility 10 km or more
Few clouds at a height of 2400 ft
Scattered clouds at a height of 3500 ft

METAR: EGBJ 191820Z 04012KT 9999 FEW024 SCT035 07/03 Q1018

Time: 18:42 (18:42 UTC)

Forecast

The report was made 1 hour and 44 minutes ago, at 16:58 UTC
Forecast valid from 19 at 18 UTC to 19 at 20 UTC
Wind 12 kt from the East/Northeast
Visibility 10 km or more
Scattered clouds at a height of 2500 ft
Probability 30% :
Temporary
from 19 at 18 UTC to 19 at 20 UTC
Wind 15 kt from the East/Northeast with gusts up to 25 kt
Visibility: 7000 m
rain showers

TAF: EGBJ 191658Z 1918/1920 06012KT 9999 SCT025 PROB30 TEMPO 1918/1920 07015G25KT 7000 SHRA

Weather observations and forecasts of more than 4000 airports (METAR and TAF reports).

The available stations are represented by yellow and red dots on the map.

Hover mouse over dot to see the name of the station.

Then click to see weather observations and forecasts.

To change the map : click on the green buttons with a black cross to zoom in, on the green button with a dash to zoom out, or on the green arrows for adjacent maps.


METAR-TAF: